ホノルル の空港の天気 - METARとTAF

ホノルル国際空港 ( PHNL / HNL ) - アメリカ ハワイ州ホノルル
飛行場実況気象(Metar)
観測時間10/15 21:53 HST (10/16 07:53 UTC)
風向・風速北北東 3m/s
視程10km以上
天気現象
少しの雲 雲底高度 760m
全天の4割程度の雲 雲底高度 1280m
全天の8割程度の雲 雲底高度 5490m
気温27.2℃
湿度62%
気圧1017hPa
METARPHNL 160753Z 03006KT 10SM FEW025 SCT042 BKN180 27/19 A3004 RMK AO2 SLP170 T02720194
過去の天気等 Google飛行場航空写真 Wunderground天気予報

過去48時間のMETAR

飛行場予報(TAF)
発表時間: 10/15 19:39 HST (10/16 05:39 UTC)
予報対象時間: 15日20時 HST ~ 17日2時 HST
風向・風速北東 4m/s
視程10km以上
少しの雲 雲底高度 760m
全天の4割程度の雲 雲底高度 1220m
16日10時 HST から
風向・風速東北東 5m/s 瞬間風速 8m/s
視程10km以上
天気現象周辺でしゅう雨
全天の4割程度の雲 雲底高度 760m
全天の4割程度の雲 雲底高度 1070m
16日19時 HST から
風向・風速東北東 4m/s
視程10km以上
天気現象周辺でしゅう雨
全天の4割程度の雲 雲底高度 760m
全天の8割程度の雲 雲底高度 1070m
PHNL 160539Z 1606/1712 04007KT P6SM FEW025 SCT040
FM162000 07010G16KT P6SM VCSH SCT025 SCT035
FM170500 07008KT P6SM VCSH SCT025 BKN035